KEET

Shelby County Airport

Alabaster, Alabama, USA
METAR KEET 190553Z AUTO VRB03KT 5SM BR BKN003 11/11 A2999 RMK AO2 SLP152 T01110106 10122 20100 401440094 56005
Observed Flight Rules
Jan-19 @ 05:53 UTC (29 minutes ago) Instrument Flight Rules
Wind Visibility Clouds Conditions
Variable at 3 knots 5 miles
  • Broken at 300' AGL
  • Mist
Temperatures Readings
Current 11°C / 52°F
Dewpoint 11°C / 52°F
Humidity 100%
Altimeter 29.99" Hg
Pressure 1015.2 hPa
Elevation 173
METAR KEET 190553Z AUTO VRB03KT 5SM BR BKN003 11/11 A2999 RMK AO2 SLP152 T01110106 10122 20100 401440094 56005
Observed Flight Rules
Jan-19 @ 05:53 UTC
(29 minutes ago)
LIFR
Wind Visibility
Variable at 3 knots 5 miles
Clouds
  • Broken at 300' AGL
Conditions
  • Mist
Temperature Dewpoint
11°C / 52°F 11°C / 52°F
Humidity Altimeter Pressure
100% 29.99" Hg 1015.2 hPa